sensor_id;sensor_type;location;lat;lon;timestamp;temperature;humidity
78514;SHT31;67814;51.976;5.810;2023-04-25T00:01:47;10.1;67.7
78514;SHT31;67814;51.976;5.810;2023-04-25T00:04:18;10.1;68.1
78514;SHT31;67814;51.976;5.810;2023-04-25T00:06:49;10.0;67.8
78514;SHT31;67814;51.976;5.810;2023-04-25T00:09:19;10.0;67.7
78514;SHT31;67814;51.976;5.810;2023-04-25T00:11:49;10.0;67.7
78514;SHT31;67814;51.976;5.810;2023-04-25T00:14:18;10.0;67.7
78514;SHT31;67814;51.976;5.810;2023-04-25T00:16:48;9.9;67.8
78514;SHT31;67814;51.976;5.810;2023-04-25T00:19:20;9.9;67.6
78514;SHT31;67814;51.976;5.810;2023-04-25T00:21:50;9.9;67.6
78514;SHT31;67814;51.976;5.810;2023-04-25T00:24:21;9.8;67.5
78514;SHT31;67814;51.976;5.810;2023-04-25T00:26:50;9.8;67.2
78514;SHT31;67814;51.976;5.810;2023-04-25T00:29:20;9.8;67.5
78514;SHT31;67814;51.976;5.810;2023-04-25T00:31:50;9.8;67.6
78514;SHT31;67814;51.976;5.810;2023-04-25T00:34:19;9.7;67.5
78514;SHT31;67814;51.976;5.810;2023-04-25T00:36:49;9.7;67.7
78514;SHT31;67814;51.976;5.810;2023-04-25T00:39:19;9.7;67.8
78514;SHT31;67814;51.976;5.810;2023-04-25T00:41:50;9.7;68.3
78514;SHT31;67814;51.976;5.810;2023-04-25T00:44:24;9.6;68.6
78514;SHT31;67814;51.976;5.810;2023-04-25T00:46:54;9.6;68.6
78514;SHT31;67814;51.976;5.810;2023-04-25T00:49:24;9.6;68.4
78514;SHT31;67814;51.976;5.810;2023-04-25T00:51:54;9.6;68.0
78514;SHT31;67814;51.976;5.810;2023-04-25T00:54:24;9.6;67.9
78514;SHT31;67814;51.976;5.810;2023-04-25T00:56:54;9.6;67.8
78514;SHT31;67814;51.976;5.810;2023-04-25T00:59:25;9.6;67.7
78514;SHT31;67814;51.976;5.810;2023-04-25T01:01:55;9.6;67.5
78514;SHT31;67814;51.976;5.810;2023-04-25T01:04:27;9.5;67.4
78514;SHT31;67814;51.976;5.810;2023-04-25T01:06:58;9.5;67.5
78514;SHT31;67814;51.976;5.810;2023-04-25T01:09:27;9.5;67.2
78514;SHT31;67814;51.976;5.810;2023-04-25T01:11:59;9.5;67.2
78514;SHT31;67814;51.976;5.810;2023-04-25T01:14:30;9.4;67.4
78514;SHT31;67814;51.976;5.810;2023-04-25T01:17:02;9.4;67.3
78514;SHT31;67814;51.976;5.810;2023-04-25T01:19:31;9.4;67.5
78514;SHT31;67814;51.976;5.810;2023-04-25T01:22:01;9.3;67.7
78514;SHT31;67814;51.976;5.810;2023-04-25T01:24:32;9.3;68.0
78514;SHT31;67814;51.976;5.810;2023-04-25T01:27:02;9.3;68.4
78514;SHT31;67814;51.976;5.810;2023-04-25T01:29:32;9.2;68.0
78514;SHT31;67814;51.976;5.810;2023-04-25T01:32:02;9.2;68.5
78514;SHT31;67814;51.976;5.810;2023-04-25T01:34:32;9.2;69.1
78514;SHT31;67814;51.976;5.810;2023-04-25T01:37:04;9.2;69.2
78514;SHT31;67814;51.976;5.810;2023-04-25T01:39:34;9.2;68.7
78514;SHT31;67814;51.976;5.810;2023-04-25T01:42:03;9.2;69.4
78514;SHT31;67814;51.976;5.810;2023-04-25T01:44:33;9.2;69.0
78514;SHT31;67814;51.976;5.810;2023-04-25T01:47:03;9.2;68.7
78514;SHT31;67814;51.976;5.810;2023-04-25T01:49:32;9.2;69.0
78514;SHT31;67814;51.976;5.810;2023-04-25T01:52:02;9.3;69.0
78514;SHT31;67814;51.976;5.810;2023-04-25T01:54:32;9.3;68.6
78514;SHT31;67814;51.976;5.810;2023-04-25T01:57:01;9.3;68.3
78514;SHT31;67814;51.976;5.810;2023-04-25T01:59:31;9.3;68.0
78514;SHT31;67814;51.976;5.810;2023-04-25T02:02:00;9.3;68.3
78514;SHT31;67814;51.976;5.810;2023-04-25T02:04:31;9.3;68.1
78514;SHT31;67814;51.976;5.810;2023-04-25T02:07:03;9.3;68.3
78514;SHT31;67814;51.976;5.810;2023-04-25T02:09:33;9.4;67.7
78514;SHT31;67814;51.976;5.810;2023-04-25T02:12:02;9.3;67.5
78514;SHT31;67814;51.976;5.810;2023-04-25T02:14:32;9.3;67.6
78514;SHT31;67814;51.976;5.810;2023-04-25T02:17:02;9.3;68.1
78514;SHT31;67814;51.976;5.810;2023-04-25T02:19:33;9.3;68.1
78514;SHT31;67814;51.976;5.810;2023-04-25T02:22:04;9.3;67.1
78514;SHT31;67814;51.976;5.810;2023-04-25T02:24:34;9.4;67.3
78514;SHT31;67814;51.976;5.810;2023-04-25T02:27:03;9.4;67.5
78514;SHT31;67814;51.976;5.810;2023-04-25T02:29:33;9.4;67.2
78514;SHT31;67814;51.976;5.810;2023-04-25T02:32:03;9.4;66.8
78514;SHT31;67814;51.976;5.810;2023-04-25T02:34:33;9.3;66.7
78514;SHT31;67814;51.976;5.810;2023-04-25T02:37:02;9.3;66.4
78514;SHT31;67814;51.976;5.810;2023-04-25T02:39:32;9.3;66.9
78514;SHT31;67814;51.976;5.810;2023-04-25T02:42:02;9.3;66.7
78514;SHT31;67814;51.976;5.810;2023-04-25T02:44:32;9.3;65.9
78514;SHT31;67814;51.976;5.810;2023-04-25T02:47:01;9.2;65.9
78514;SHT31;67814;51.976;5.810;2023-04-25T02:49:31;9.2;65.8
78514;SHT31;67814;51.976;5.810;2023-04-25T02:52:01;9.2;65.2
78514;SHT31;67814;51.976;5.810;2023-04-25T02:54:30;9.1;65.7
78514;SHT31;67814;51.976;5.810;2023-04-25T02:57:00;9.1;65.8
78514;SHT31;67814;51.976;5.810;2023-04-25T02:59:30;9.0;66.0
78514;SHT31;67814;51.976;5.810;2023-04-25T03:02:00;9.0;65.6
78514;SHT31;67814;51.976;5.810;2023-04-25T03:04:30;8.9;65.9
78514;SHT31;67814;51.976;5.810;2023-04-25T03:07:00;8.9;65.8
78514;SHT31;67814;51.976;5.810;2023-04-25T03:09:30;8.8;66.2
78514;SHT31;67814;51.976;5.810;2023-04-25T03:12:00;8.8;66.1
78514;SHT31;67814;51.976;5.810;2023-04-25T03:14:29;8.7;66.0
78514;SHT31;67814;51.976;5.810;2023-04-25T03:16:59;8.7;66.0
78514;SHT31;67814;51.976;5.810;2023-04-25T03:19:28;8.6;66.0
78514;SHT31;67814;51.976;5.810;2023-04-25T03:21:58;8.6;66.1
78514;SHT31;67814;51.976;5.810;2023-04-25T03:24:28;8.5;66.1
78514;SHT31;67814;51.976;5.810;2023-04-25T03:26:57;8.5;66.0
78514;SHT31;67814;51.976;5.810;2023-04-25T03:29:29;8.4;66.5
78514;SHT31;67814;51.976;5.810;2023-04-25T03:32:01;8.4;66.0
78514;SHT31;67814;51.976;5.810;2023-04-25T03:34:30;8.3;66.3
78514;SHT31;67814;51.976;5.810;2023-04-25T03:37:00;8.3;66.7
78514;SHT31;67814;51.976;5.810;2023-04-25T03:39:29;8.2;67.1
78514;SHT31;67814;51.976;5.810;2023-04-25T03:41:59;8.2;67.2
78514;SHT31;67814;51.976;5.810;2023-04-25T03:44:30;8.2;67.4
78514;SHT31;67814;51.976;5.810;2023-04-25T03:47:01;8.1;68.1
78514;SHT31;67814;51.976;5.810;2023-04-25T03:49:32;8.1;68.0
78514;SHT31;67814;51.976;5.810;2023-04-25T03:52:02;8.1;67.5
78514;SHT31;67814;51.976;5.810;2023-04-25T03:54:32;8.1;68.0
78514;SHT31;67814;51.976;5.810;2023-04-25T03:57:02;8.1;68.3
78514;SHT31;67814;51.976;5.810;2023-04-25T03:59:32;8.1;68.1
78514;SHT31;67814;51.976;5.810;2023-04-25T04:02:01;8.1;68.0
78514;SHT31;67814;51.976;5.810;2023-04-25T04:04:31;8.1;67.3
78514;SHT31;67814;51.976;5.810;2023-04-25T04:07:00;8.0;67.4
78514;SHT31;67814;51.976;5.810;2023-04-25T04:09:30;8.0;67.5
78514;SHT31;67814;51.976;5.810;2023-04-25T04:12:00;7.9;68.0
78514;SHT31;67814;51.976;5.810;2023-04-25T04:14:30;7.9;68.1
78514;SHT31;67814;51.976;5.810;2023-04-25T04:17:00;7.9;68.0
78514;SHT31;67814;51.976;5.810;2023-04-25T04:19:29;7.9;67.9
78514;SHT31;67814;51.976;5.810;2023-04-25T04:21:59;7.8;67.9
78514;SHT31;67814;51.976;5.810;2023-04-25T04:24:29;7.8;67.7
78514;SHT31;67814;51.976;5.810;2023-04-25T04:26:58;7.8;67.6
78514;SHT31;67814;51.976;5.810;2023-04-25T04:29:28;7.8;67.9
78514;SHT31;67814;51.976;5.810;2023-04-25T04:31:57;7.8;68.2
78514;SHT31;67814;51.976;5.810;2023-04-25T04:34:28;7.7;68.6
78514;SHT31;67814;51.976;5.810;2023-04-25T04:36:58;7.7;68.3
78514;SHT31;67814;51.976;5.810;2023-04-25T04:39:28;7.7;68.3
78514;SHT31;67814;51.976;5.810;2023-04-25T04:41:57;7.7;69.1
78514;SHT31;67814;51.976;5.810;2023-04-25T04:44:29;7.7;69.0
78514;SHT31;67814;51.976;5.810;2023-04-25T04:46:59;7.7;68.2
78514;SHT31;67814;51.976;5.810;2023-04-25T04:49:31;7.7;68.8
78514;SHT31;67814;51.976;5.810;2023-04-25T04:52:00;7.7;69.6
78514;SHT31;67814;51.976;5.810;2023-04-25T04:54:30;7.7;69.1
78514;SHT31;67814;51.976;5.810;2023-04-25T04:56:59;7.7;69.1
78514;SHT31;67814;51.976;5.810;2023-04-25T04:59:29;7.7;69.4
78514;SHT31;67814;51.976;5.810;2023-04-25T05:01:59;7.7;69.4
78514;SHT31;67814;51.976;5.810;2023-04-25T05:04:28;7.7;69.4
78514;SHT31;67814;51.976;5.810;2023-04-25T05:06:58;7.8;70.2
78514;SHT31;67814;51.976;5.810;2023-04-25T05:09:30;7.8;70.2
78514;SHT31;67814;51.976;5.810;2023-04-25T05:11:59;7.8;70.1
78514;SHT31;67814;51.976;5.810;2023-04-25T05:14:30;7.9;70.4
78514;SHT31;67814;51.976;5.810;2023-04-25T05:17:01;7.9;70.4
78514;SHT31;67814;51.976;5.810;2023-04-25T05:19:34;8.0;70.5
78514;SHT31;67814;51.976;5.810;2023-04-25T05:22:03;8.1;68.2
78514;SHT31;67814;51.976;5.810;2023-04-25T05:24:33;8.1;67.8
78514;SHT31;67814;51.976;5.810;2023-04-25T05:27:03;8.1;68.5
78514;SHT31;67814;51.976;5.810;2023-04-25T05:29:33;8.2;68.5
78514;SHT31;67814;51.976;5.810;2023-04-25T05:32:03;8.2;68.8
78514;SHT31;67814;51.976;5.810;2023-04-25T05:34:34;8.3;67.6
78514;SHT31;67814;51.976;5.810;2023-04-25T05:37:04;8.3;67.4
78514;SHT31;67814;51.976;5.810;2023-04-25T05:39:33;8.4;67.4
78514;SHT31;67814;51.976;5.810;2023-04-25T05:42:03;8.4;67.6
78514;SHT31;67814;51.976;5.810;2023-04-25T05:44:33;8.5;69.0
78514;SHT31;67814;51.976;5.810;2023-04-25T05:47:02;8.6;68.5
78514;SHT31;67814;51.976;5.810;2023-04-25T05:49:33;8.9;70.3
78514;SHT31;67814;51.976;5.810;2023-04-25T05:52:03;9.4;68.1
78514;SHT31;67814;51.976;5.810;2023-04-25T05:54:32;10.3;65.5
78514;SHT31;67814;51.976;5.810;2023-04-25T05:57:02;11.1;59.4
78514;SHT31;67814;51.976;5.810;2023-04-25T05:59:32;11.6;57.4
78514;SHT31;67814;51.976;5.810;2023-04-25T06:02:02;11.9;57.2
78514;SHT31;67814;51.976;5.810;2023-04-25T06:04:31;12.1;56.6
78514;SHT31;67814;51.976;5.810;2023-04-25T06:07:01;12.4;55.5
78514;SHT31;67814;51.976;5.810;2023-04-25T06:09:30;12.6;52.7
78514;SHT31;67814;51.976;5.810;2023-04-25T06:12:00;12.7;53.2
78514;SHT31;67814;51.976;5.810;2023-04-25T06:14:30;12.7;53.2
78514;SHT31;67814;51.976;5.810;2023-04-25T06:17:00;12.6;52.0
78514;SHT31;67814;51.976;5.810;2023-04-25T06:19:34;12.6;52.1
78514;SHT31;67814;51.976;5.810;2023-04-25T06:22:05;12.4;52.0
78514;SHT31;67814;51.976;5.810;2023-04-25T06:24:34;12.3;53.4
78514;SHT31;67814;51.976;5.810;2023-04-25T06:27:04;12.1;53.2
78514;SHT31;67814;51.976;5.810;2023-04-25T06:29:34;12.0;53.6
78514;SHT31;67814;51.976;5.810;2023-04-25T06:32:04;11.9;53.4
78514;SHT31;67814;51.976;5.810;2023-04-25T06:34:34;11.8;54.6
78514;SHT31;67814;51.976;5.810;2023-04-25T06:37:03;11.7;54.3
78514;SHT31;67814;51.976;5.810;2023-04-25T06:39:33;11.6;54.5
78514;SHT31;67814;51.976;5.810;2023-04-25T06:42:02;11.6;55.0
78514;SHT31;67814;51.976;5.810;2023-04-25T06:44:32;11.6;54.5
78514;SHT31;67814;51.976;5.810;2023-04-25T06:47:02;11.5;53.9
78514;SHT31;67814;51.976;5.810;2023-04-25T06:49:33;11.4;54.4
78514;SHT31;67814;51.976;5.810;2023-04-25T06:52:03;11.3;55.5
78514;SHT31;67814;51.976;5.810;2023-04-25T06:54:33;11.3;55.2
78514;SHT31;67814;51.976;5.810;2023-04-25T06:57:02;11.2;55.0
78514;SHT31;67814;51.976;5.810;2023-04-25T06:59:32;11.1;55.8
78514;SHT31;67814;51.976;5.810;2023-04-25T07:02:02;11.1;55.5
78514;SHT31;67814;51.976;5.810;2023-04-25T07:04:31;11.0;57.7
78514;SHT31;67814;51.976;5.810;2023-04-25T07:07:01;11.0;56.2
78514;SHT31;67814;51.976;5.810;2023-04-25T07:09:33;11.0;57.4
78514;SHT31;67814;51.976;5.810;2023-04-25T07:12:03;11.0;56.3
78514;SHT31;67814;51.976;5.810;2023-04-25T07:14:32;11.0;56.8
78514;SHT31;67814;51.976;5.810;2023-04-25T07:17:02;11.0;57.6
78514;SHT31;67814;51.976;5.810;2023-04-25T07:19:34;11.1;58.0
78514;SHT31;67814;51.976;5.810;2023-04-25T07:22:05;11.1;56.4
78514;SHT31;67814;51.976;5.810;2023-04-25T07:24:35;11.2;55.8
78514;SHT31;67814;51.976;5.810;2023-04-25T07:27:04;11.3;55.2
78514;SHT31;67814;51.976;5.810;2023-04-25T07:29:34;11.3;54.8
78514;SHT31;67814;51.976;5.810;2023-04-25T07:32:06;11.4;56.2
78514;SHT31;67814;51.976;5.810;2023-04-25T07:34:37;11.4;57.5
78514;SHT31;67814;51.976;5.810;2023-04-25T07:37:09;11.6;55.8
78514;SHT31;67814;51.976;5.810;2023-04-25T07:39:38;11.7;52.3
78514;SHT31;67814;51.976;5.810;2023-04-25T07:42:08;11.8;50.2
78514;SHT31;67814;51.976;5.810;2023-04-25T07:44:38;11.8;50.7
78514;SHT31;67814;51.976;5.810;2023-04-25T07:47:08;11.8;50.9
78514;SHT31;67814;51.976;5.810;2023-04-25T07:49:39;11.8;50.6
78514;SHT31;67814;51.976;5.810;2023-04-25T07:52:08;11.8;50.5
78514;SHT31;67814;51.976;5.810;2023-04-25T07:54:40;11.8;52.6
78514;SHT31;67814;51.976;5.810;2023-04-25T07:57:10;11.8;54.8
78514;SHT31;67814;51.976;5.810;2023-04-25T07:59:41;11.9;51.8
78514;SHT31;67814;51.976;5.810;2023-04-25T08:02:10;11.9;54.7
78514;SHT31;67814;51.976;5.810;2023-04-25T08:04:40;12.0;52.4
78514;SHT31;67814;51.976;5.810;2023-04-25T08:07:10;12.2;50.7
78514;SHT31;67814;51.976;5.810;2023-04-25T08:09:39;12.3;48.8
78514;SHT31;67814;51.976;5.810;2023-04-25T08:12:09;12.3;48.3
78514;SHT31;67814;51.976;5.810;2023-04-25T08:14:39;12.3;48.5
78514;SHT31;67814;51.976;5.810;2023-04-25T08:17:09;12.3;47.7
78514;SHT31;67814;51.976;5.810;2023-04-25T08:19:39;12.3;46.6
78514;SHT31;67814;51.976;5.810;2023-04-25T08:22:09;12.3;49.0
78514;SHT31;67814;51.976;5.810;2023-04-25T08:24:38;12.4;46.0
78514;SHT31;67814;51.976;5.810;2023-04-25T08:27:08;12.3;47.3
78514;SHT31;67814;51.976;5.810;2023-04-25T08:29:38;12.3;46.4
78514;SHT31;67814;51.976;5.810;2023-04-25T08:32:08;12.3;47.3
78514;SHT31;67814;51.976;5.810;2023-04-25T08:34:37;12.3;46.9
78514;SHT31;67814;51.976;5.810;2023-04-25T08:37:09;12.3;48.0
78514;SHT31;67814;51.976;5.810;2023-04-25T08:39:39;12.4;48.4
78514;SHT31;67814;51.976;5.810;2023-04-25T08:42:11;12.6;47.5
78514;SHT31;67814;51.976;5.810;2023-04-25T08:44:41;12.7;45.6
78514;SHT31;67814;51.976;5.810;2023-04-25T08:47:11;12.8;47.6
78514;SHT31;67814;51.976;5.810;2023-04-25T08:49:45;12.9;43.7
78514;SHT31;67814;51.976;5.810;2023-04-25T08:52:23;12.9;43.1
78514;SHT31;67814;51.976;5.810;2023-04-25T08:54:53;12.8;43.3
78514;SHT31;67814;51.976;5.810;2023-04-25T08:57:24;12.7;43.3
78514;SHT31;67814;51.976;5.810;2023-04-25T08:59:54;12.6;44.8
78514;SHT31;67814;51.976;5.810;2023-04-25T09:02:24;12.5;44.8
78514;SHT31;67814;51.976;5.810;2023-04-25T09:04:56;12.5;44.9
78514;SHT31;67814;51.976;5.810;2023-04-25T09:07:26;12.4;45.4
78514;SHT31;67814;51.976;5.810;2023-04-25T09:09:56;12.3;46.6
78514;SHT31;67814;51.976;5.810;2023-04-25T09:12:28;12.2;47.2
78514;SHT31;67814;51.976;5.810;2023-04-25T09:15:06;12.2;47.8
78514;SHT31;67814;51.976;5.810;2023-04-25T09:17:36;12.2;46.2
78514;SHT31;67814;51.976;5.810;2023-04-25T09:20:10;12.1;45.9
78514;SHT31;67814;51.976;5.810;2023-04-25T09:22:40;12.0;46.7
78514;SHT31;67814;51.976;5.810;2023-04-25T09:25:12;12.0;45.4
78514;SHT31;67814;51.976;5.810;2023-04-25T09:27:51;12.0;46.5
78514;SHT31;67814;51.976;5.810;2023-04-25T09:30:31;12.0;46.5
78514;SHT31;67814;51.976;5.810;2023-04-25T09:33:06;12.0;44.2
78514;SHT31;67814;51.976;5.810;2023-04-25T09:35:38;12.0;44.5
78514;SHT31;67814;51.976;5.810;2023-04-25T09:38:13;12.0;44.5
78514;SHT31;67814;51.976;5.810;2023-04-25T09:40:46;12.0;43.4
78514;SHT31;67814;51.976;5.810;2023-04-25T09:43:21;11.9;44.9
78514;SHT31;67814;51.976;5.810;2023-04-25T09:45:54;11.8;45.3
78514;SHT31;67814;51.976;5.810;2023-04-25T09:48:27;11.8;46.7
78514;SHT31;67814;51.976;5.810;2023-04-25T09:51:08;11.8;44.9
78514;SHT31;67814;51.976;5.810;2023-04-25T09:53:40;11.8;46.0
78514;SHT31;67814;51.976;5.810;2023-04-25T09:56:10;11.8;45.0
78514;SHT31;67814;51.976;5.810;2023-04-25T09:58:40;11.9;45.4
78514;SHT31;67814;51.976;5.810;2023-04-25T10:01:10;12.0;44.8
78514;SHT31;67814;51.976;5.810;2023-04-25T10:03:40;12.1;45.2
78514;SHT31;67814;51.976;5.810;2023-04-25T10:06:13;12.2;44.9
78514;SHT31;67814;51.976;5.810;2023-04-25T10:08:44;12.4;43.8
78514;SHT31;67814;51.976;5.810;2023-04-25T10:11:17;12.5;43.1
78514;SHT31;67814;51.976;5.810;2023-04-25T10:13:48;12.6;42.9
78514;SHT31;67814;51.976;5.810;2023-04-25T10:16:19;12.7;42.0
78514;SHT31;67814;51.976;5.810;2023-04-25T10:18:50;12.7;43.3
78514;SHT31;67814;51.976;5.810;2023-04-25T10:21:22;12.7;43.3
78514;SHT31;67814;51.976;5.810;2023-04-25T10:23:52;12.7;41.4
78514;SHT31;67814;51.976;5.810;2023-04-25T10:26:23;12.7;43.1
78514;SHT31;67814;51.976;5.810;2023-04-25T10:28:57;12.7;43.1
78514;SHT31;67814;51.976;5.810;2023-04-25T10:31:30;12.8;40.9
78514;SHT31;67814;51.976;5.810;2023-04-25T10:34:01;12.9;40.1
78514;SHT31;67814;51.976;5.810;2023-04-25T10:36:32;12.9;41.1
78514;SHT31;67814;51.976;5.810;2023-04-25T10:39:06;12.9;42.5
78514;SHT31;67814;51.976;5.810;2023-04-25T10:41:57;12.9;40.4
78514;SHT31;67814;51.976;5.810;2023-04-25T10:44:29;12.9;41.1
78514;SHT31;67814;51.976;5.810;2023-04-25T10:47:01;12.8;42.0
78514;SHT31;67814;51.976;5.810;2023-04-25T10:49:34;12.8;41.7
78514;SHT31;67814;51.976;5.810;2023-04-25T10:52:19;12.8;42.4
78514;SHT31;67814;51.976;5.810;2023-04-25T10:54:54;12.8;43.8
78514;SHT31;67814;51.976;5.810;2023-04-25T10:57:41;12.8;41.9
78514;SHT31;67814;51.976;5.810;2023-04-25T11:00:16;12.9;42.0
78514;SHT31;67814;51.976;5.810;2023-04-25T11:02:48;12.9;40.5
78514;SHT31;67814;51.976;5.810;2023-04-25T11:05:23;12.9;40.7
78514;SHT31;67814;51.976;5.810;2023-04-25T11:07:58;12.9;40.2
78514;SHT31;67814;51.976;5.810;2023-04-25T11:10:29;12.8;41.2
78514;SHT31;67814;51.976;5.810;2023-04-25T11:12:59;12.8;41.0
78514;SHT31;67814;51.976;5.810;2023-04-25T11:15:29;12.8;38.6
78514;SHT31;67814;51.976;5.810;2023-04-25T11:17:58;12.8;39.9
78514;SHT31;67814;51.976;5.810;2023-04-25T11:20:28;12.7;40.3
78514;SHT31;67814;51.976;5.810;2023-04-25T11:22:59;12.7;38.7
78514;SHT31;67814;51.976;5.810;2023-04-25T11:25:29;12.7;39.8
78514;SHT31;67814;51.976;5.810;2023-04-25T11:27:59;12.7;40.2
78514;SHT31;67814;51.976;5.810;2023-04-25T11:30:30;12.8;39.3
78514;SHT31;67814;51.976;5.810;2023-04-25T11:33:01;12.8;38.8
78514;SHT31;67814;51.976;5.810;2023-04-25T11:35:32;12.8;38.6
78514;SHT31;67814;51.976;5.810;2023-04-25T11:38:02;12.8;38.0
78514;SHT31;67814;51.976;5.810;2023-04-25T11:40:33;12.8;39.0
78514;SHT31;67814;51.976;5.810;2023-04-25T11:43:05;12.9;40.6
78514;SHT31;67814;51.976;5.810;2023-04-25T11:45:36;12.9;39.9
78514;SHT31;67814;51.976;5.810;2023-04-25T11:48:06;13.0;39.0
78514;SHT31;67814;51.976;5.810;2023-04-25T11:50:38;13.0;39.1
78514;SHT31;67814;51.976;5.810;2023-04-25T11:53:08;13.1;40.6
78514;SHT31;67814;51.976;5.810;2023-04-25T11:55:38;13.1;39.8
78514;SHT31;67814;51.976;5.810;2023-04-25T11:58:08;13.2;40.2
78514;SHT31;67814;51.976;5.810;2023-04-25T12:00:42;13.3;39.4
78514;SHT31;67814;51.976;5.810;2023-04-25T12:03:11;13.4;39.4
78514;SHT31;67814;51.976;5.810;2023-04-25T12:05:41;13.5;40.8
78514;SHT31;67814;51.976;5.810;2023-04-25T12:08:14;13.5;42.1
78514;SHT31;67814;51.976;5.810;2023-04-25T12:10:46;13.4;42.8
78514;SHT31;67814;51.976;5.810;2023-04-25T12:13:20;13.1;44.4
78514;SHT31;67814;51.976;5.810;2023-04-25T12:15:50;12.8;45.2
78514;SHT31;67814;51.976;5.810;2023-04-25T12:18:23;12.6;45.9
78514;SHT31;67814;51.976;5.810;2023-04-25T12:20:55;12.5;45.3
78514;SHT31;67814;51.976;5.810;2023-04-25T12:23:28;12.3;44.5
78514;SHT31;67814;51.976;5.810;2023-04-25T12:25:59;12.1;46.2
78514;SHT31;67814;51.976;5.810;2023-04-25T12:28:32;12.0;45.9
78514;SHT31;67814;51.976;5.810;2023-04-25T12:31:04;11.9;46.2
78514;SHT31;67814;51.976;5.810;2023-04-25T12:33:35;11.9;46.1
78514;SHT31;67814;51.976;5.810;2023-04-25T12:36:06;11.9;45.6
78514;SHT31;67814;51.976;5.810;2023-04-25T12:38:41;11.9;46.1
78514;SHT31;67814;51.976;5.810;2023-04-25T12:41:11;11.9;46.1
78514;SHT31;67814;51.976;5.810;2023-04-25T12:43:41;11.9;44.9
78514;SHT31;67814;51.976;5.810;2023-04-25T12:46:10;11.9;45.7
78514;SHT31;67814;51.976;5.810;2023-04-25T12:48:42;12.0;44.1
78514;SHT31;67814;51.976;5.810;2023-04-25T12:51:11;12.1;42.5
78514;SHT31;67814;51.976;5.810;2023-04-25T12:53:41;12.1;42.4
78514;SHT31;67814;51.976;5.810;2023-04-25T12:56:11;12.3;41.5
78514;SHT31;67814;51.976;5.810;2023-04-25T12:58:42;12.4;40.8
78514;SHT31;67814;51.976;5.810;2023-04-25T13:01:13;12.5;41.0
78514;SHT31;67814;51.976;5.810;2023-04-25T13:03:42;12.6;43.9
78514;SHT31;67814;51.976;5.810;2023-04-25T13:06:12;12.7;41.8
78514;SHT31;67814;51.976;5.810;2023-04-25T13:08:42;12.9;42.6
78514;SHT31;67814;51.976;5.810;2023-04-25T13:11:12;13.0;41.9
78514;SHT31;67814;51.976;5.810;2023-04-25T13:13:43;13.1;41.3
78514;SHT31;67814;51.976;5.810;2023-04-25T13:16:13;13.2;42.1
78514;SHT31;67814;51.976;5.810;2023-04-25T13:18:43;13.2;42.6
78514;SHT31;67814;51.976;5.810;2023-04-25T13:21:12;13.2;42.0
78514;SHT31;67814;51.976;5.810;2023-04-25T13:23:42;13.1;41.1
78514;SHT31;67814;51.976;5.810;2023-04-25T13:26:13;13.0;42.1
78514;SHT31;67814;51.976;5.810;2023-04-25T13:28:43;12.9;43.1
78514;SHT31;67814;51.976;5.810;2023-04-25T13:31:13;12.9;42.9
78514;SHT31;67814;51.976;5.810;2023-04-25T13:33:43;12.9;43.0
78514;SHT31;67814;51.976;5.810;2023-04-25T13:36:13;12.9;45.0
78514;SHT31;67814;51.976;5.810;2023-04-25T13:38:42;12.9;42.5
78514;SHT31;67814;51.976;5.810;2023-04-25T13:41:14;13.0;40.8
78514;SHT31;67814;51.976;5.810;2023-04-25T13:43:46;13.0;39.1
78514;SHT31;67814;51.976;5.810;2023-04-25T13:46:16;13.0;40.5
78514;SHT31;67814;51.976;5.810;2023-04-25T13:48:46;13.0;40.7
78514;SHT31;67814;51.976;5.810;2023-04-25T13:51:17;13.1;41.0
78514;SHT31;67814;51.976;5.810;2023-04-25T13:53:48;13.2;39.6
78514;SHT31;67814;51.976;5.810;2023-04-25T13:56:18;13.3;38.3
78514;SHT31;67814;51.976;5.810;2023-04-25T13:58:49;13.4;37.6
78514;SHT31;67814;51.976;5.810;2023-04-25T14:01:19;13.4;38.7
78514;SHT31;67814;51.976;5.810;2023-04-25T14:03:49;13.4;35.4
78514;SHT31;67814;51.976;5.810;2023-04-25T14:06:18;13.5;37.3
78514;SHT31;67814;51.976;5.810;2023-04-25T14:08:51;13.5;38.4
78514;SHT31;67814;51.976;5.810;2023-04-25T14:11:21;13.6;39.8
78514;SHT31;67814;51.976;5.810;2023-04-25T14:13:50;13.7;39.4
78514;SHT31;67814;51.976;5.810;2023-04-25T14:16:20;13.7;39.5
78514;SHT31;67814;51.976;5.810;2023-04-25T14:18:50;13.6;40.5
78514;SHT31;67814;51.976;5.810;2023-04-25T14:21:20;13.5;40.7
78514;SHT31;67814;51.976;5.810;2023-04-25T14:23:49;13.5;40.7
78514;SHT31;67814;51.976;5.810;2023-04-25T14:26:19;13.4;40.1
78514;SHT31;67814;51.976;5.810;2023-04-25T14:28:50;13.4;38.4
78514;SHT31;67814;51.976;5.810;2023-04-25T14:31:20;13.3;39.9
78514;SHT31;67814;51.976;5.810;2023-04-25T14:33:49;13.3;39.6
78514;SHT31;67814;51.976;5.810;2023-04-25T14:36:19;13.3;37.1
78514;SHT31;67814;51.976;5.810;2023-04-25T14:38:49;13.3;36.7
78514;SHT31;67814;51.976;5.810;2023-04-25T14:41:18;13.3;36.3
78514;SHT31;67814;51.976;5.810;2023-04-25T14:43:48;13.3;36.3
78514;SHT31;67814;51.976;5.810;2023-04-25T14:46:18;13.3;36.1
78514;SHT31;67814;51.976;5.810;2023-04-25T14:48:49;13.2;37.5
78514;SHT31;67814;51.976;5.810;2023-04-25T14:51:19;13.2;37.6
78514;SHT31;67814;51.976;5.810;2023-04-25T14:53:49;13.2;39.2
78514;SHT31;67814;51.976;5.810;2023-04-25T14:56:20;13.2;38.7
78514;SHT31;67814;51.976;5.810;2023-04-25T14:58:49;13.2;38.2
78514;SHT31;67814;51.976;5.810;2023-04-25T15:01:19;13.3;37.1
78514;SHT31;67814;51.976;5.810;2023-04-25T15:03:50;13.3;38.2
78514;SHT31;67814;51.976;5.810;2023-04-25T15:06:20;13.4;38.6
78514;SHT31;67814;51.976;5.810;2023-04-25T15:08:52;13.4;36.9
78514;SHT31;67814;51.976;5.810;2023-04-25T15:11:22;13.5;37.0
78514;SHT31;67814;51.976;5.810;2023-04-25T15:13:52;13.6;38.0
78514;SHT31;67814;51.976;5.810;2023-04-25T15:16:22;13.7;37.7
78514;SHT31;67814;51.976;5.810;2023-04-25T15:18:51;13.8;38.0
78514;SHT31;67814;51.976;5.810;2023-04-25T15:21:21;13.8;37.4
78514;SHT31;67814;51.976;5.810;2023-04-25T15:23:52;13.7;38.6
78514;SHT31;67814;51.976;5.810;2023-04-25T15:26:22;13.7;38.6
78514;SHT31;67814;51.976;5.810;2023-04-25T15:28:52;13.6;39.1
78514;SHT31;67814;51.976;5.810;2023-04-25T15:31:22;13.5;39.9
78514;SHT31;67814;51.976;5.810;2023-04-25T15:33:53;13.4;40.9
78514;SHT31;67814;51.976;5.810;2023-04-25T15:36:23;13.3;42.0
78514;SHT31;67814;51.976;5.810;2023-04-25T15:38:53;13.2;41.5
78514;SHT31;67814;51.976;5.810;2023-04-25T15:41:23;13.2;41.1
78514;SHT31;67814;51.976;5.810;2023-04-25T15:43:53;13.1;42.0
78514;SHT31;67814;51.976;5.810;2023-04-25T15:46:22;13.1;40.9
78514;SHT31;67814;51.976;5.810;2023-04-25T15:48:53;13.1;40.9
78514;SHT31;67814;51.976;5.810;2023-04-25T15:51:23;13.0;41.2
78514;SHT31;67814;51.976;5.810;2023-04-25T15:53:53;13.0;38.8
78514;SHT31;67814;51.976;5.810;2023-04-25T15:56:22;13.0;38.3
78514;SHT31;67814;51.976;5.810;2023-04-25T15:58:54;12.9;37.9
78514;SHT31;67814;51.976;5.810;2023-04-25T16:01:24;12.9;38.3
78514;SHT31;67814;51.976;5.810;2023-04-25T16:03:57;12.8;38.6
78514;SHT31;67814;51.976;5.810;2023-04-25T16:06:27;12.8;40.0
78514;SHT31;67814;51.976;5.810;2023-04-25T16:08:57;12.7;39.8
78514;SHT31;67814;51.976;5.810;2023-04-25T16:11:26;12.7;39.8
78514;SHT31;67814;51.976;5.810;2023-04-25T16:13:56;12.6;39.9
78514;SHT31;67814;51.976;5.810;2023-04-25T16:16:26;12.6;38.8
78514;SHT31;67814;51.976;5.810;2023-04-25T16:18:55;12.6;37.4
78514;SHT31;67814;51.976;5.810;2023-04-25T16:21:26;12.5;38.5
78514;SHT31;67814;51.976;5.810;2023-04-25T16:23:55;12.4;38.2
78514;SHT31;67814;51.976;5.810;2023-04-25T16:26:25;12.3;38.9
78514;SHT31;67814;51.976;5.810;2023-04-25T16:28:54;12.3;38.5